Time,TemperatureF,DewpointF,PressureIn,WindDirection,WindDirectionDegrees,WindSpeedMPH,WindSpeedGustMPH,Humidity,HourlyPrecipIn,Conditions,Clouds,dailyrainin,SoftwareType,DateUTC
2013-05-24 00:00:00,65.2,60.2,29.75,ESE,112,2.0,10.0,84,0.00,,,-99.99,WeatherLink 5.5,2013-05-24 04:00:00,
2013-05-24 00:05:00,65.0,60.0,29.74,ENE,67,3.0,14.0,84,0.00,,,-99.99,WeatherLink 5.5,2013-05-24 04:05:00,
2013-05-24 00:10:00,65.0,60.0,29.74,SE,135,1.0,7.0,84,0.00,,,-99.99,WeatherLink 5.5,2013-05-24 04:10:00,
2013-05-24 00:15:00,65.0,60.0,29.74,SE,135,1.0,7.0,84,0.00,,,-99.99,WeatherLink 5.5,2013-05-24 04:15:00,
2013-05-24 00:20:00,65.0,60.0,29.74,SE,135,3.0,11.0,84,0.00,,,-99.99,WeatherLink 5.5,2013-05-24 04:20:00,
2013-05-24 00:25:00,64.9,59.9,29.74,South,180,2.0,11.0,84,0.00,,,-99.99,WeatherLink 5.5,2013-05-24 04:25:00,
2013-05-24 00:30:00,64.9,59.9,29.74,South,180,2.0,11.0,84,0.00,,,-99.99,WeatherLink 5.5,2013-05-24 04:30:00,
2013-05-24 00:35:00,64.9,59.9,29.74,SE,135,3.0,13.0,84,0.00,,,-99.99,WeatherLink 5.5,2013-05-24 04:35:00,
2013-05-24 00:40:00,64.9,59.9,29.74,SE,135,1.0,7.0,84,0.00,,,-99.99,WeatherLink 5.5,2013-05-24 04:40:00,
2013-05-24 00:45:00,64.9,59.9,29.74,SE,135,1.0,7.0,84,0.00,,,-99.99,WeatherLink 5.5,2013-05-24 04:45:00,
2013-05-24 00:50:00,64.7,59.8,29.73,SE,135,0.0,2.0,84,0.00,,,-99.99,WeatherLink 5.5,2013-05-24 04:50:00,
2013-05-24 00:55:00,64.7,60.1,29.73,SE,135,1.0,7.0,85,0.00,,,-99.99,WeatherLink 5.5,2013-05-24 04:55:00,
2013-05-24 01:00:00,64.7,60.1,29.73,SE,135,1.0,7.0,85,0.00,,,-99.99,WeatherLink 5.5,2013-05-24 05:00:00,
2013-05-24 01:05:00,64.7,60.1,29.72,SE,135,1.0,7.0,85,0.00,,,-99.99,WeatherLink 5.5,2013-05-24 05:05:00,
2013-05-24 01:10:00,64.7,60.1,29.72,ESE,112,1.0,6.0,85,0.00,,,-99.99,WeatherLink 5.5,2013-05-24 05:10:00,
2013-05-24 01:15:00,64.7,60.1,29.72,ESE,112,1.0,6.0,85,0.00,,,-99.99,WeatherLink 5.5,2013-05-24 05:15:00,
2013-05-24 01:20:00,64.7,60.1,29.72,ESE,112,2.0,8.0,85,0.00,,,-99.99,WeatherLink 5.5,2013-05-24 05:20:00,
2013-05-24 01:25:00,64.7,60.1,29.72,ESE,112,4.0,11.0,85,0.00,,,-99.99,WeatherLink 5.5,2013-05-24 05:25:00,
2013-05-24 01:30:00,64.7,60.1,29.72,ESE,112,4.0,11.0,85,0.00,,,-99.99,WeatherLink 5.5,2013-05-24 05:30:00,
2013-05-24 01:35:00,64.7,60.1,29.71,ESE,112,4.0,9.0,85,0.00,,,-99.99,WeatherLink 5.5,2013-05-24 05:35:00,
2013-05-24 01:40:00,64.7,60.1,29.71,SE,135,1.0,8.0,85,0.00,,,-99.99,WeatherLink 5.5,2013-05-24 05:40:00,
2013-05-24 01:45:00,64.7,60.1,29.71,SE,135,1.0,8.0,85,0.00,,,-99.99,WeatherLink 5.5,2013-05-24 05:45:00,
2013-05-24 01:50:00,64.7,60.1,29.71,SE,135,1.0,7.0,85,0.00,,,-99.99,WeatherLink 5.5,2013-05-24 05:50:00,
2013-05-24 01:55:00,64.7,60.1,29.71,SE,135,2.0,7.0,85,0.00,,,-99.99,WeatherLink 5.5,2013-05-24 05:55:00,
2013-05-24 02:00:00,64.7,60.1,29.71,SE,135,2.0,7.0,85,0.00,,,-99.99,WeatherLink 5.5,2013-05-24 06:00:00,
2013-05-24 02:05:00,64.7,60.1,29.70,ENE,67,2.0,8.0,85,0.00,,,-99.99,WeatherLink 5.5,2013-05-24 06:05:00,
2013-05-24 02:10:00,64.7,60.1,29.70,East,90,0.0,4.0,85,0.00,,,-99.99,WeatherLink 5.5,2013-05-24 06:10:00,
2013-05-24 02:15:00,64.7,60.1,29.70,East,90,0.0,4.0,85,0.00,,,-99.99,WeatherLink 5.5,2013-05-24 06:15:00,
2013-05-24 02:20:00,64.5,59.9,29.70,East,90,1.0,9.0,85,0.00,,,-99.99,WeatherLink 5.5,2013-05-24 06:20:00,
2013-05-24 02:25:00,64.4,59.8,29.70,East,90,2.0,7.0,85,0.00,,,-99.99,WeatherLink 5.5,2013-05-24 06:25:00,
2013-05-24 02:30:00,64.4,59.8,29.70,East,90,2.0,7.0,85,0.00,,,-99.99,WeatherLink 5.5,2013-05-24 06:30:00,
2013-05-24 02:35:00,64.4,59.8,29.69,ESE,112,0.0,4.0,85,0.00,,,-99.99,WeatherLink 5.5,2013-05-24 06:35:00,
2013-05-24 02:40:00,64.2,59.6,29.69,ENE,67,1.0,6.0,85,0.00,,,-99.99,WeatherLink 5.5,2013-05-24 06:40:00,
2013-05-24 02:45:00,64.2,59.6,29.69,ENE,67,1.0,6.0,85,0.00,,,-99.99,WeatherLink 5.5,2013-05-24 06:45:00,
2013-05-24 02:50:00,64.2,59.6,29.68,ESE,112,2.0,7.0,85,0.00,,,-99.99,WeatherLink 5.5,2013-05-24 06:50:00,
2013-05-24 02:55:00,64.2,59.6,29.68,SE,135,1.0,7.0,85,0.00,,,-99.99,WeatherLink 5.5,2013-05-24 06:55:00,
2013-05-24 03:00:00,64.2,59.6,29.68,SE,135,1.0,7.0,85,0.00,,,-99.99,WeatherLink 5.5,2013-05-24 07:00:00,
2013-05-24 03:05:00,64.0,59.4,29.67,ESE,112,0.0,2.0,85,0.00,,,-99.99,WeatherLink 5.5,2013-05-24 07:05:00,
2013-05-24 03:10:00,64.0,59.4,29.67,ESE,112,0.0,4.0,85,0.00,,,-99.99,WeatherLink 5.5,2013-05-24 07:10:00,
2013-05-24 03:15:00,64.0,59.4,29.67,ESE,112,0.0,4.0,85,0.00,,,-99.99,WeatherLink 5.5,2013-05-24 07:15:00,
2013-05-24 03:20:00,64.0,59.4,29.67,SE,135,2.0,10.0,85,0.00,,,-99.99,WeatherLink 5.5,2013-05-24 07:20:00,
2013-05-24 03:25:00,64.0,59.4,29.67,ESE,112,5.0,17.0,85,0.00,,,-99.99,WeatherLink 5.5,2013-05-24 07:25:00,
2013-05-24 03:30:00,64.0,59.4,29.67,ESE,112,5.0,17.0,85,0.00,,,-99.99,WeatherLink 5.5,2013-05-24 07:30:00,
2013-05-24 03:35:00,64.0,59.4,29.66,ESE,112,2.0,9.0,85,0.00,,,-99.99,WeatherLink 5.5,2013-05-24 07:35:00,
2013-05-24 03:40:00,64.0,59.4,29.66,ESE,112,4.0,11.0,85,0.00,,,-99.99,WeatherLink 5.5,2013-05-24 07:40:00,
2013-05-24 03:45:00,64.0,59.4,29.66,ESE,112,4.0,11.0,85,0.00,,,-99.99,WeatherLink 5.5,2013-05-24 07:45:00,
2013-05-24 03:50:00,64.0,59.4,29.66,ESE,112,1.0,8.0,85,0.00,,,-99.99,WeatherLink 5.5,2013-05-24 07:50:00,
2013-05-24 03:55:00,64.0,59.4,29.66,ESE,112,1.0,7.0,85,0.00,,,-99.99,WeatherLink 5.5,2013-05-24 07:55:00,
2013-05-24 04:00:00,64.0,59.4,29.66,ESE,112,1.0,7.0,85,0.00,,,-99.99,WeatherLink 5.5,2013-05-24 08:00:00,
2013-05-24 04:05:00,63.9,59.3,29.65,South,180,0.0,2.0,85,0.00,,,-99.99,WeatherLink 5.5,2013-05-24 08:05:00,
2013-05-24 04:10:00,63.9,59.3,29.65,North,-999,0.0,0.0,85,0.00,,,-99.99,WeatherLink 5.5,2013-05-24 08:10:00,
2013-05-24 04:15:00,63.9,59.3,29.65,North,-999,0.0,0.0,85,0.00,,,-99.99,WeatherLink 5.5,2013-05-24 08:15:00,
2013-05-24 04:20:00,63.9,59.3,29.64,SE,135,0.0,4.0,85,0.00,,,-99.99,WeatherLink 5.5,2013-05-24 08:20:00,
2013-05-24 04:25:00,63.9,59.3,29.64,ESE,112,0.0,4.0,85,0.00,,,-99.99,WeatherLink 5.5,2013-05-24 08:25:00,
2013-05-24 04:30:00,63.9,59.3,29.64,ESE,112,0.0,4.0,85,0.00,,,-99.99,WeatherLink 5.5,2013-05-24 08:30:00,
2013-05-24 04:35:00,63.9,59.3,29.63,ESE,112,0.0,2.0,85,0.00,,,-99.99,WeatherLink 5.5,2013-05-24 08:35:00,
2013-05-24 04:40:00,63.7,59.1,29.63,ESE,112,0.0,1.0,85,0.00,,,-99.99,WeatherLink 5.5,2013-05-24 08:40:00,
2013-05-24 04:45:00,63.7,59.1,29.63,ESE,112,0.0,1.0,85,0.00,,,-99.99,WeatherLink 5.5,2013-05-24 08:45:00,
2013-05-24 04:50:00,63.7,59.4,29.62,North,-999,0.0,0.0,86,0.00,,,-99.99,WeatherLink 5.5,2013-05-24 08:50:00,
2013-05-24 04:55:00,63.7,59.4,29.62,North,-999,0.0,0.0,86,0.00,,,-99.99,WeatherLink 5.5,2013-05-24 08:55:00,
2013-05-24 05:00:00,63.7,59.4,29.62,North,-999,0.0,0.0,86,0.00,,,-99.99,WeatherLink 5.5,2013-05-24 09:00:00,
2013-05-24 05:05:00,63.7,59.4,29.62,North,-999,0.0,0.0,86,0.00,,,-99.99,WeatherLink 5.5,2013-05-24 09:05:00,
2013-05-24 05:10:00,63.7,59.4,29.62,North,-999,0.0,0.0,86,0.00,,,-99.99,WeatherLink 5.5,2013-05-24 09:10:00,
2013-05-24 05:15:00,63.7,59.4,29.62,North,-999,0.0,0.0,86,0.00,,,-99.99,WeatherLink 5.5,2013-05-24 09:15:00,
2013-05-24 05:20:00,63.7,59.4,29.62,North,-999,0.0,0.0,86,0.00,,,-99.99,WeatherLink 5.5,2013-05-24 09:20:00,
2013-05-24 05:25:00,63.7,59.4,29.62,North,-999,0.0,0.0,86,0.00,,,-99.99,WeatherLink 5.5,2013-05-24 09:25:00,
2013-05-24 05:30:00,63.7,59.4,29.62,North,-999,0.0,0.0,86,0.00,,,-99.99,WeatherLink 5.5,2013-05-24 09:30:00,
2013-05-24 05:35:00,63.7,59.4,29.61,North,-999,0.0,0.0,86,0.00,,,-99.99,WeatherLink 5.5,2013-05-24 09:35:00,
2013-05-24 05:40:00,63.7,59.4,29.61,North,-999,0.0,0.0,86,0.00,,,-99.99,WeatherLink 5.5,2013-05-24 09:40:00,
2013-05-24 05:45:00,63.7,59.4,29.61,North,-999,0.0,0.0,86,0.00,,,-99.99,WeatherLink 5.5,2013-05-24 09:45:00,
2013-05-24 05:50:00,63.7,59.4,29.61,North,-999,0.0,0.0,86,0.00,,,-99.99,WeatherLink 5.5,2013-05-24 09:50:00,
2013-05-24 05:55:00,63.7,59.4,29.61,North,-999,0.0,0.0,86,0.00,,,-99.99,WeatherLink 5.5,2013-05-24 09:55:00,
2013-05-24 06:00:00,63.7,59.4,29.61,North,-999,0.0,0.0,86,0.00,,,-99.99,WeatherLink 5.5,2013-05-24 10:00:00,
2013-05-24 06:05:00,63.7,59.4,29.61,North,-999,0.0,0.0,86,0.00,,,-99.99,WeatherLink 5.5,2013-05-24 10:05:00,
2013-05-24 06:10:00,63.7,59.4,29.61,North,-999,0.0,0.0,86,0.00,,,-99.99,WeatherLink 5.5,2013-05-24 10:10:00,
2013-05-24 06:15:00,63.7,59.4,29.61,North,-999,0.0,0.0,86,0.00,,,-99.99,WeatherLink 5.5,2013-05-24 10:15:00,
2013-05-24 06:20:00,63.7,59.4,29.61,North,-999,0.0,0.0,86,0.00,,,-99.99,WeatherLink 5.5,2013-05-24 10:20:00,
2013-05-24 06:25:00,63.7,59.4,29.61,North,-999,0.0,0.0,86,0.00,,,-99.99,WeatherLink 5.5,2013-05-24 10:25:00,
2013-05-24 06:30:00,63.7,59.4,29.61,North,-999,0.0,0.0,86,0.00,,,-99.99,WeatherLink 5.5,2013-05-24 10:30:00,
2013-05-24 06:35:00,63.9,59.6,29.60,North,-999,0.0,0.0,86,0.00,,,-99.99,WeatherLink 5.5,2013-05-24 10:35:00,
2013-05-24 06:40:00,63.9,59.6,29.60,North,-999,0.0,0.0,86,0.00,,,-99.99,WeatherLink 5.5,2013-05-24 10:40:00,
2013-05-24 06:45:00,63.9,59.6,29.60,North,-999,0.0,0.0,86,0.00,,,-99.99,WeatherLink 5.5,2013-05-24 10:45:00,
2013-05-24 06:50:00,64.2,59.9,29.60,North,-999,0.0,0.0,86,0.00,,,-99.99,WeatherLink 5.5,2013-05-24 10:50:00,
2013-05-24 06:55:00,64.2,59.9,29.60,North,-999,0.0,0.0,86,0.00,,,-99.99,WeatherLink 5.5,2013-05-24 10:55:00,
2013-05-24 07:00:00,64.2,59.9,29.60,North,-999,0.0,0.0,86,0.00,,,-99.99,WeatherLink 5.5,2013-05-24 11:00:00,
2013-05-24 07:05:00,64.4,60.1,29.60,North,-999,0.0,0.0,86,0.00,,,-99.99,WeatherLink 5.5,2013-05-24 11:05:00,
2013-05-24 07:10:00,64.5,60.2,29.60,North,-999,0.0,0.0,86,0.00,,,-99.99,WeatherLink 5.5,2013-05-24 11:10:00,
2013-05-24 07:15:00,64.5,60.2,29.60,North,-999,0.0,0.0,86,0.00,,,-99.99,WeatherLink 5.5,2013-05-24 11:15:00,
2013-05-24 07:20:00,64.4,60.1,29.59,North,-999,0.0,0.0,86,0.00,,,-99.99,WeatherLink 5.5,2013-05-24 11:20:00,
2013-05-24 07:25:00,64.5,60.2,29.59,North,-999,0.0,0.0,86,0.00,,,-99.99,WeatherLink 5.5,2013-05-24 11:25:00,
2013-05-24 07:30:00,64.5,60.2,29.59,North,-999,0.0,0.0,86,0.00,,,-99.99,WeatherLink 5.5,2013-05-24 11:30:00,
2013-05-24 07:35:00,64.7,60.4,29.62,North,-999,0.0,0.0,86,0.00,,,-99.99,WeatherLink 5.5,2013-05-24 11:35:00,
2013-05-24 07:40:00,64.7,60.4,29.62,North,-999,0.0,0.0,86,0.00,,,-99.99,WeatherLink 5.5,2013-05-24 11:40:00,
2013-05-24 07:45:00,64.7,60.4,29.62,North,-999,0.0,0.0,86,0.00,,,-99.99,WeatherLink 5.5,2013-05-24 11:45:00,
2013-05-24 07:50:00,64.9,60.6,29.63,North,-999,0.0,0.0,86,0.00,,,-99.99,WeatherLink 5.5,2013-05-24 11:50:00,
2013-05-24 07:55:00,64.9,60.6,29.63,North,-999,0.0,0.0,86,0.00,,,-99.99,WeatherLink 5.5,2013-05-24 11:55:00,
2013-05-24 08:00:00,64.9,60.6,29.63,North,-999,0.0,0.0,86,0.00,,,-99.99,WeatherLink 5.5,2013-05-24 12:00:00,
2013-05-24 08:05:00,65.0,60.7,29.63,North,-999,0.0,0.0,86,0.00,,,-99.99,WeatherLink 5.5,2013-05-24 12:05:00,
2013-05-24 08:10:00,65.0,60.7,29.63,North,-999,0.0,0.0,86,0.00,,,-99.99,WeatherLink 5.5,2013-05-24 12:10:00,
2013-05-24 08:15:00,65.0,60.7,29.63,North,-999,0.0,0.0,86,0.00,,,-99.99,WeatherLink 5.5,2013-05-24 12:15:00,
2013-05-24 08:20:00,65.0,60.7,29.64,North,-999,0.0,0.0,86,0.00,,,-99.99,WeatherLink 5.5,2013-05-24 12:20:00,
2013-05-24 08:25:00,65.0,60.7,29.64,North,-999,0.0,0.0,86,0.00,,,-99.99,WeatherLink 5.5,2013-05-24 12:25:00,
2013-05-24 08:30:00,65.0,60.7,29.64,North,-999,0.0,0.0,86,0.00,,,-99.99,WeatherLink 5.5,2013-05-24 12:30:00,
2013-05-24 08:35:00,65.2,60.9,29.65,North,-999,0.0,0.0,86,0.00,,,-99.99,WeatherLink 5.5,2013-05-24 12:35:00,
2013-05-24 08:40:00,65.2,60.9,29.65,North,-999,0.0,0.0,86,0.00,,,-99.99,WeatherLink 5.5,2013-05-24 12:40:00,
2013-05-24 08:45:00,65.2,60.9,29.65,North,-999,0.0,0.0,86,0.00,,,-99.99,WeatherLink 5.5,2013-05-24 12:45:00,
2013-05-24 08:50:00,65.2,60.9,29.66,North,-999,0.0,0.0,86,0.00,,,-99.99,WeatherLink 5.5,2013-05-24 12:50:00,
2013-05-24 08:55:00,65.2,60.9,29.66,North,-999,0.0,0.0,86,0.00,,,-99.99,WeatherLink 5.5,2013-05-24 12:55:00,
2013-05-24 09:00:00,65.2,60.9,29.66,North,-999,0.0,0.0,86,0.00,,,-99.99,WeatherLink 5.5,2013-05-24 13:00:00,
2013-05-24 09:05:00,65.3,61.0,29.65,North,-999,0.0,0.0,86,0.00,,,-99.99,WeatherLink 5.5,2013-05-24 13:05:00,
2013-05-24 09:10:00,65.5,61.2,29.65,North,-999,0.0,0.0,86,0.00,,,-99.99,WeatherLink 5.5,2013-05-24 13:10:00,
2013-05-24 09:15:00,65.5,61.2,29.65,North,-999,0.0,0.0,86,0.00,,,-99.99,WeatherLink 5.5,2013-05-24 13:15:00,
2013-05-24 09:20:00,65.7,61.4,29.66,North,-999,0.0,0.0,86,0.00,,,-99.99,WeatherLink 5.5,2013-05-24 13:20:00,
2013-05-24 09:25:00,65.7,61.4,29.66,North,-999,0.0,0.0,86,0.00,,,-99.99,WeatherLink 5.5,2013-05-24 13:25:00,
2013-05-24 09:30:00,65.7,61.4,29.66,North,-999,0.0,0.0,86,0.00,,,-99.99,WeatherLink 5.5,2013-05-24 13:30:00,
2013-05-24 09:35:00,65.7,61.4,29.66,North,-999,0.0,0.0,86,0.00,,,-99.99,WeatherLink 5.5,2013-05-24 13:35:00,
2013-05-24 09:40:00,65.7,61.4,29.66,North,-999,0.0,0.0,86,0.00,,,-99.99,WeatherLink 5.5,2013-05-24 13:40:00,
2013-05-24 09:45:00,65.7,61.4,29.66,North,-999,0.0,0.0,86,0.00,,,-99.99,WeatherLink 5.5,2013-05-24 13:45:00,
2013-05-24 09:50:00,65.8,61.5,29.66,North,-999,0.0,0.0,86,0.00,,,-99.99,WeatherLink 5.5,2013-05-24 13:50:00,
2013-05-24 09:55:00,66.1,61.8,29.66,North,-999,0.0,0.0,86,0.00,,,-99.99,WeatherLink 5.5,2013-05-24 13:55:00,
2013-05-24 10:00:00,66.1,61.8,29.66,North,-999,0.0,0.0,86,0.00,,,-99.99,WeatherLink 5.5,2013-05-24 14:00:00,
2013-05-24 10:05:00,66.1,61.8,29.66,North,-999,0.0,0.0,86,0.00,,,-99.99,WeatherLink 5.5,2013-05-24 14:05:00,
2013-05-24 10:10:00,66.1,61.8,29.66,North,-999,0.0,0.0,86,0.00,,,-99.99,WeatherLink 5.5,2013-05-24 14:10:00,
2013-05-24 10:15:00,66.1,61.8,29.66,North,-999,0.0,0.0,86,0.00,,,-99.99,WeatherLink 5.5,2013-05-24 14:15:00,
2013-05-24 10:20:00,66.1,61.8,29.66,North,-999,0.0,0.0,86,0.00,,,-99.99,WeatherLink 5.5,2013-05-24 14:20:00,
2013-05-24 10:25:00,66.0,61.7,29.66,North,-999,0.0,0.0,86,0.00,,,-99.99,WeatherLink 5.5,2013-05-24 14:25:00,
2013-05-24 10:30:00,66.0,61.7,29.66,North,-999,0.0,0.0,86,0.00,,,-99.99,WeatherLink 5.5,2013-05-24 14:30:00,
2013-05-24 10:35:00,66.3,62.0,29.67,North,-999,0.0,0.0,86,0.00,,,-99.99,WeatherLink 5.5,2013-05-24 14:35:00,
2013-05-24 10:40:00,66.6,62.3,29.67,North,-999,0.0,0.0,86,0.00,,,-99.99,WeatherLink 5.5,2013-05-24 14:40:00,
2013-05-24 10:45:00,66.6,62.3,29.67,North,-999,0.0,0.0,86,0.00,,,-99.99,WeatherLink 5.5,2013-05-24 14:45:00,
2013-05-24 10:50:00,66.6,61.9,29.67,North,-999,0.0,0.0,85,0.00,,,-99.99,WeatherLink 5.5,2013-05-24 14:50:00,
2013-05-24 10:55:00,66.8,62.1,29.67,North,-999,0.0,0.0,85,0.00,,,-99.99,WeatherLink 5.5,2013-05-24 14:55:00,
2013-05-24 11:00:00,66.8,62.1,29.67,North,-999,0.0,0.0,85,0.00,,,-99.99,WeatherLink 5.5,2013-05-24 15:00:00,
2013-05-24 11:05:00,67.0,62.0,29.67,North,-999,0.0,0.0,84,0.00,,,-99.99,WeatherLink 5.5,2013-05-24 15:05:00,
2013-05-24 11:10:00,67.3,62.3,29.67,North,-999,0.0,0.0,84,0.00,,,-99.99,WeatherLink 5.5,2013-05-24 15:10:00,
2013-05-24 11:15:00,67.3,62.3,29.67,North,-999,0.0,0.0,84,0.00,,,-99.99,WeatherLink 5.5,2013-05-24 15:15:00,
2013-05-24 11:20:00,67.3,61.6,29.67,North,-999,0.0,0.0,82,0.00,,,-99.99,WeatherLink 5.5,2013-05-24 15:20:00,
2013-05-24 11:25:00,67.6,61.6,29.67,North,-999,0.0,0.0,81,0.00,,,-99.99,WeatherLink 5.5,2013-05-24 15:25:00,
2013-05-24 11:30:00,67.6,61.6,29.67,North,-999,0.0,0.0,81,0.00,,,-99.99,WeatherLink 5.5,2013-05-24 15:30:00,
2013-05-24 11:35:00,68.0,61.2,29.67,North,-999,0.0,0.0,79,0.00,,,-99.99,WeatherLink 5.5,2013-05-24 15:35:00,
2013-05-24 11:40:00,68.1,61.3,29.67,North,-999,0.0,0.0,79,0.00,,,-99.99,WeatherLink 5.5,2013-05-24 15:40:00,
2013-05-24 11:45:00,68.1,61.3,29.67,North,-999,0.0,0.0,79,0.00,,,-99.99,WeatherLink 5.5,2013-05-24 15:45:00,
2013-05-24 11:50:00,68.3,60.8,29.67,North,-999,0.0,0.0,77,0.00,,,-99.99,WeatherLink 5.5,2013-05-24 15:50:00,
2013-05-24 11:55:00,68.5,60.6,29.67,North,-999,0.0,0.0,76,0.00,,,-99.99,WeatherLink 5.5,2013-05-24 15:55:00,
2013-05-24 12:00:00,68.5,60.6,29.67,North,-999,0.0,0.0,76,0.00,,,-99.99,WeatherLink 5.5,2013-05-24 16:00:00,
2013-05-24 12:05:00,68.8,60.2,29.67,SE,135,0.0,1.0,74,0.00,,,-99.99,WeatherLink 5.5,2013-05-24 16:05:00,
2013-05-24 12:10:00,69.1,60.1,29.67,SE,135,0.0,4.0,73,0.00,,,-99.99,WeatherLink 5.5,2013-05-24 16:10:00,
2013-05-24 12:15:00,69.1,60.1,29.67,SE,135,0.0,4.0,73,0.00,,,-99.99,WeatherLink 5.5,2013-05-24 16:15:00,
2013-05-24 12:20:00,69.3,59.5,29.67,WSW,247,0.0,2.0,71,0.00,,,-99.99,WeatherLink 5.5,2013-05-24 16:20:00,
2013-05-24 12:25:00,69.5,59.3,29.67,SE,135,1.0,6.0,70,0.00,,,-99.99,WeatherLink 5.5,2013-05-24 16:25:00,
2013-05-24 12:30:00,69.5,59.3,29.67,SE,135,1.0,6.0,70,0.00,,,-99.99,WeatherLink 5.5,2013-05-24 16:30:00,
2013-05-24 12:35:00,69.5,58.9,29.67,SE,135,1.0,6.0,69,0.00,,,-99.99,WeatherLink 5.5,2013-05-24 16:35:00,
2013-05-24 12:40:00,69.6,59.0,29.67,SE,135,0.0,4.0,69,0.00,,,-99.99,WeatherLink 5.5,2013-05-24 16:40:00,
2013-05-24 12:45:00,69.6,59.0,29.67,SE,135,0.0,4.0,69,0.00,,,-99.99,WeatherLink 5.5,2013-05-24 16:45:00,
2013-05-24 12:50:00,70.1,59.5,29.66,North,-999,0.0,0.0,69,0.00,,,-99.99,WeatherLink 5.5,2013-05-24 16:50:00,
2013-05-24 12:55:00,70.3,59.6,29.66,WSW,247,0.0,4.0,69,0.00,,,-99.99,WeatherLink 5.5,2013-05-24 16:55:00,
2013-05-24 13:00:00,70.3,59.6,29.66,WSW,247,0.0,4.0,69,0.00,,,-99.99,WeatherLink 5.5,2013-05-24 17:00:00,
2013-05-24 13:05:00,70.8,58.9,29.66,WSW,247,0.0,1.0,66,0.00,,,-99.99,WeatherLink 5.5,2013-05-24 17:05:00,
2013-05-24 13:10:00,70.5,58.6,29.66,SE,135,1.0,6.0,66,0.00,,,-99.99,WeatherLink 5.5,2013-05-24 17:10:00,
2013-05-24 13:15:00,70.5,58.6,29.66,SE,135,1.0,6.0,66,0.00,,,-99.99,WeatherLink 5.5,2013-05-24 17:15:00,
2013-05-24 13:20:00,70.8,58.9,29.67,South,180,0.0,4.0,66,0.00,,,-99.99,WeatherLink 5.5,2013-05-24 17:20:00,
2013-05-24 13:25:00,71.0,59.1,29.67,North,-999,0.0,0.0,66,0.00,,,-99.99,WeatherLink 5.5,2013-05-24 17:25:00,
2013-05-24 13:30:00,71.0,59.1,29.67,North,-999,0.0,0.0,66,0.00,,,-99.99,WeatherLink 5.5,2013-05-24 17:30:00,
2013-05-24 13:35:00,71.2,58.8,29.66,North,-999,0.0,0.0,65,0.00,,,-99.99,WeatherLink 5.5,2013-05-24 17:35:00,
2013-05-24 13:40:00,71.3,58.5,29.66,SE,135,0.0,4.0,64,0.00,,,-99.99,WeatherLink 5.5,2013-05-24 17:40:00,
2013-05-24 13:45:00,71.3,58.5,29.66,SE,135,0.0,4.0,64,0.00,,,-99.99,WeatherLink 5.5,2013-05-24 17:45:00,
2013-05-24 13:50:00,69.6,56.9,29.67,West,270,4.0,11.0,64,0.00,,,-99.99,WeatherLink 5.5,2013-05-24 17:50:00,
2013-05-24 13:55:00,67.5,56.2,29.67,WNW,292,3.0,9.0,67,0.00,,,-99.99,WeatherLink 5.5,2013-05-24 17:55:00,
2013-05-24 14:00:00,67.5,56.2,29.67,WNW,292,3.0,9.0,67,0.00,,,-99.99,WeatherLink 5.5,2013-05-24 18:00:00,
2013-05-24 14:05:00,65.5,55.8,29.68,WSW,247,1.0,6.0,71,0.00,,,-99.99,WeatherLink 5.5,2013-05-24 18:05:00,
2013-05-24 14:10:00,65.0,55.4,29.68,West,270,1.0,8.0,71,0.00,,,-99.99,WeatherLink 5.5,2013-05-24 18:10:00,
2013-05-24 14:15:00,65.0,55.4,29.68,West,270,1.0,8.0,71,0.00,,,-99.99,WeatherLink 5.5,2013-05-24 18:15:00,
2013-05-24 14:20:00,64.0,54.8,29.68,WSW,247,2.0,7.0,72,0.00,,,-99.99,WeatherLink 5.5,2013-05-24 18:20:00,
2013-05-24 14:25:00,63.6,54.8,29.68,SW,225,2.0,6.0,73,0.00,,,-99.99,WeatherLink 5.5,2013-05-24 18:25:00,
2013-05-24 14:30:00,63.6,54.8,29.68,SW,225,2.0,6.0,73,0.00,,,-99.99,WeatherLink 5.5,2013-05-24 18:30:00,
2013-05-24 14:35:00,63.4,55.0,29.69,WNW,292,1.0,4.0,74,0.00,,,-99.99,WeatherLink 5.5,2013-05-24 18:35:00,
2013-05-24 14:40:00,63.6,55.2,29.69,West,270,0.0,4.0,74,0.00,,,-99.99,WeatherLink 5.5,2013-05-24 18:40:00,
2013-05-24 14:45:00,63.6,55.2,29.69,West,270,0.0,4.0,74,0.00,,,-99.99,WeatherLink 5.5,2013-05-24 18:45:00,
2013-05-24 14:50:00,63.9,55.1,29.69,WSW,247,2.0,9.0,73,0.00,,,-99.99,WeatherLink 5.5,2013-05-24 18:50:00,
2013-05-24 14:55:00,64.0,55.2,29.69,West,270,1.0,6.0,73,0.00,,,-99.99,WeatherLink 5.5,2013-05-24 18:55:00,
2013-05-24 15:00:00,64.0,55.2,29.69,West,270,1.0,6.0,73,0.00,,,-99.99,WeatherLink 5.5,2013-05-24 19:00:00,
2013-05-24 15:05:00,64.4,55.6,29.69,WSW,247,0.0,2.0,73,0.00,,,-99.99,WeatherLink 5.5,2013-05-24 19:05:00,
2013-05-24 15:10:00,64.5,56.0,29.69,WSW,247,0.0,6.0,74,0.00,,,-99.99,WeatherLink 5.5,2013-05-24 19:10:00,
2013-05-24 15:15:00,64.5,56.0,29.69,WSW,247,0.0,6.0,74,0.00,,,-99.99,WeatherLink 5.5,2013-05-24 19:15:00,
2013-05-24 15:20:00,64.0,55.5,29.69,ESE,112,0.0,1.0,74,0.00,,,-99.99,WeatherLink 5.5,2013-05-24 19:20:00,
2013-05-24 15:25:00,64.2,55.7,29.69,SW,225,0.0,1.0,74,0.00,,,-99.99,WeatherLink 5.5,2013-05-24 19:25:00,
2013-05-24 15:30:00,64.2,55.7,29.69,SW,225,0.0,1.0,74,0.00,,,-99.99,WeatherLink 5.5,2013-05-24 19:30:00,
2013-05-24 15:35:00,64.4,55.6,29.69,West,270,0.0,6.0,73,0.00,,,-99.99,WeatherLink 5.5,2013-05-24 19:35:00,
2013-05-24 15:40:00,64.7,55.1,29.69,North,0,0.0,2.0,71,0.00,,,-99.99,WeatherLink 5.5,2013-05-24 19:40:00,
2013-05-24 15:45:00,64.7,55.1,29.69,North,0,0.0,2.0,71,0.00,,,-99.99,WeatherLink 5.5,2013-05-24 19:45:00,
2013-05-24 15:50:00,64.0,53.2,29.69,WNW,292,1.0,8.0,68,0.00,,,-99.99,WeatherLink 5.5,2013-05-24 19:50:00,
2013-05-24 15:55:00,63.6,52.4,29.69,WNW,292,3.0,11.0,67,0.00,,,-99.99,WeatherLink 5.5,2013-05-24 19:55:00,
2013-05-24 16:00:00,63.6,52.4,29.69,WNW,292,3.0,11.0,67,0.00,,,-99.99,WeatherLink 5.5,2013-05-24 20:00:00,
2013-05-24 16:05:00,63.4,51.4,29.69,SW,225,2.0,6.0,65,0.00,,,-99.99,WeatherLink 5.5,2013-05-24 20:05:00,
2013-05-24 16:10:00,63.4,51.0,29.69,West,270,2.0,11.0,64,0.00,,,-99.99,WeatherLink 5.5,2013-05-24 20:10:00,
2013-05-24 16:15:00,63.4,51.0,29.69,West,270,2.0,11.0,64,0.00,,,-99.99,WeatherLink 5.5,2013-05-24 20:15:00,
2013-05-24 16:20:00,63.9,50.6,29.69,WNW,292,1.0,7.0,62,0.00,,,-99.99,WeatherLink 5.5,2013-05-24 20:20:00,
2013-05-24 16:25:00,63.9,50.2,29.69,NW,315,2.0,8.0,61,0.00,,,-99.99,WeatherLink 5.5,2013-05-24 20:25:00,
2013-05-24 16:30:00,63.9,50.2,29.69,NW,315,2.0,8.0,61,0.00,,,-99.99,WeatherLink 5.5,2013-05-24 20:30:00,
2013-05-24 16:35:00,63.6,50.3,29.69,West,270,2.0,7.0,62,0.00,,,-99.99,WeatherLink 5.5,2013-05-24 20:35:00,
2013-05-24 16:40:00,63.4,50.1,29.69,WNW,292,3.0,9.0,62,0.00,,,-99.99,WeatherLink 5.5,2013-05-24 20:40:00,
2013-05-24 16:45:00,63.4,50.1,29.69,WNW,292,3.0,9.0,62,0.00,,,-99.99,WeatherLink 5.5,2013-05-24 20:45:00,
2013-05-24 16:50:00,62.9,49.2,29.70,West,270,5.0,11.0,61,0.00,,,-99.99,WeatherLink 5.5,2013-05-24 20:50:00,
2013-05-24 16:55:00,62.6,49.4,29.70,SW,225,3.0,13.0,62,0.00,,,-99.99,WeatherLink 5.5,2013-05-24 20:55:00,
2013-05-24 17:00:00,62.6,49.4,29.70,SW,225,3.0,13.0,62,0.00,,,-99.99,WeatherLink 5.5,2013-05-24 21:00:00,
2013-05-24 17:05:00,62.3,49.1,29.70,WSW,247,1.0,9.0,62,0.00,,,-99.99,WeatherLink 5.5,2013-05-24 21:05:00,
2013-05-24 17:10:00,62.0,48.0,29.70,WSW,247,3.0,9.0,60,0.00,,,-99.99,WeatherLink 5.5,2013-05-24 21:10:00,
2013-05-24 17:15:00,62.0,48.0,29.70,WSW,247,3.0,9.0,60,0.00,,,-99.99,WeatherLink 5.5,2013-05-24 21:15:00,
2013-05-24 17:20:00,61.3,46.8,29.71,WNW,292,4.0,11.0,59,0.00,,,-99.99,WeatherLink 5.5,2013-05-24 21:20:00,
2013-05-24 17:25:00,61.2,46.8,29.71,WSW,247,1.0,7.0,59,0.00,,,-99.99,WeatherLink 5.5,2013-05-24 21:25:00,
2013-05-24 17:30:00,61.2,46.8,29.71,WSW,247,1.0,7.0,59,0.00,,,-99.99,WeatherLink 5.5,2013-05-24 21:30:00,
2013-05-24 17:35:00,60.6,45.7,29.71,SSW,202,3.0,9.0,58,0.00,,,-99.99,WeatherLink 5.5,2013-05-24 21:35:00,
2013-05-24 17:40:00,60.2,46.3,29.71,West,270,2.0,8.0,60,0.00,,,-99.99,WeatherLink 5.5,2013-05-24 21:40:00,
2013-05-24 17:45:00,60.2,46.3,29.71,West,270,2.0,8.0,60,0.00,,,-99.99,WeatherLink 5.5,2013-05-24 21:45:00,
2013-05-24 17:50:00,59.3,45.0,29.72,West,270,5.0,10.0,59,0.00,,,-99.99,WeatherLink 5.5,2013-05-24 21:50:00,
2013-05-24 17:55:00,59.0,45.1,29.72,SW,225,5.0,13.0,60,0.00,,,-99.99,WeatherLink 5.5,2013-05-24 21:55:00,
2013-05-24 18:00:00,59.0,45.1,29.72,SW,225,5.0,13.0,60,0.00,,,-99.99,WeatherLink 5.5,2013-05-24 22:00:00,
2013-05-24 18:05:00,58.4,44.6,29.73,WNW,292,4.0,10.0,60,0.00,,,-99.99,WeatherLink 5.5,2013-05-24 22:05:00,
2013-05-24 18:10:00,58.1,44.3,29.73,West,270,3.0,15.0,60,0.00,,,-99.99,WeatherLink 5.5,2013-05-24 22:10:00,
2013-05-24 18:15:00,58.1,44.3,29.73,West,270,3.0,15.0,60,0.00,,,-99.99,WeatherLink 5.5,2013-05-24 22:15:00,
2013-05-24 18:20:00,57.5,44.6,29.73,WSW,247,2.0,9.0,62,0.00,,,-99.99,WeatherLink 5.5,2013-05-24 22:20:00,
2013-05-24 18:25:00,57.3,44.4,29.73,West,270,3.0,11.0,62,0.00,,,-99.99,WeatherLink 5.5,2013-05-24 22:25:00,
2013-05-24 18:30:00,57.3,44.4,29.73,West,270,3.0,11.0,62,0.00,,,-99.99,WeatherLink 5.5,2013-05-24 22:30:00,
2013-05-24 18:35:00,56.7,44.2,29.73,WSW,247,3.0,10.0,63,0.00,,,-99.99,WeatherLink 5.5,2013-05-24 22:35:00,
2013-05-24 18:40:00,56.6,43.7,29.73,West,270,2.0,8.0,62,0.00,,,-99.99,WeatherLink 5.5,2013-05-24 22:40:00,
2013-05-24 18:45:00,56.6,43.7,29.73,West,270,2.0,8.0,62,0.00,,,-99.99,WeatherLink 5.5,2013-05-24 22:45:00,
2013-05-24 18:50:00,56.2,43.8,29.73,WSW,247,1.0,7.0,63,0.00,,,-99.99,WeatherLink 5.5,2013-05-24 22:50:00,
2013-05-24 18:55:00,56.0,43.6,29.73,West,270,3.0,8.0,63,0.00,,,-99.99,WeatherLink 5.5,2013-05-24 22:55:00,
2013-05-24 19:00:00,56.0,43.6,29.73,West,270,3.0,8.0,63,0.00,,,-99.99,WeatherLink 5.5,2013-05-24 23:00:00,
2013-05-24 19:05:00,55.4,43.0,29.75,WNW,292,3.0,10.0,63,0.00,,,-99.99,WeatherLink 5.5,2013-05-24 23:05:00,
2013-05-24 19:10:00,55.1,43.1,29.75,WSW,247,2.0,9.0,64,0.00,,,-99.99,WeatherLink 5.5,2013-05-24 23:10:00,
2013-05-24 19:15:00,55.1,43.1,29.75,WSW,247,2.0,9.0,64,0.00,,,-99.99,WeatherLink 5.5,2013-05-24 23:15:00,
2013-05-24 19:20:00,54.5,42.6,29.76,West,270,2.0,8.0,64,0.00,,,-99.99,WeatherLink 5.5,2013-05-24 23:20:00,
2013-05-24 19:25:00,54.4,42.5,29.76,WNW,292,3.0,9.0,64,0.00,,,-99.99,WeatherLink 5.5,2013-05-24 23:25:00,
2013-05-24 19:30:00,54.4,42.5,29.76,WNW,292,3.0,9.0,64,0.00,,,-99.99,WeatherLink 5.5,2013-05-24 23:30:00,
2013-05-24 19:35:00,53.9,43.2,29.76,WSW,247,2.0,9.0,67,0.00,,,-99.99,WeatherLink 5.5,2013-05-24 23:35:00,
2013-05-24 19:40:00,53.5,43.6,29.76,West,270,2.0,9.0,69,0.00,,,-99.99,WeatherLink 5.5,2013-05-24 23:40:00,
2013-05-24 19:45:00,53.5,43.6,29.76,West,270,2.0,9.0,69,0.00,,,-99.99,WeatherLink 5.5,2013-05-24 23:45:00,
2013-05-24 19:50:00,52.6,44.2,29.77,WSW,247,2.0,10.0,73,0.01,,,-99.99,WeatherLink 5.5,2013-05-24 23:50:00,
2013-05-24 19:55:00,52.2,44.5,29.77,WSW,247,1.0,7.0,75,0.02,,,-99.99,WeatherLink 5.5,2013-05-24 23:55:00,
2013-05-24 20:00:00,52.2,44.5,29.77,WSW,247,1.0,7.0,75,0.02,,,-99.99,WeatherLink 5.5,2013-05-25 00:00:00,
2013-05-24 20:05:00,51.4,44.4,29.77,SW,225,0.0,4.0,77,0.02,,,-99.99,WeatherLink 5.5,2013-05-25 00:05:00,
2013-05-24 20:10:00,51.3,44.7,29.77,West,270,0.0,2.0,78,0.03,,,-99.99,WeatherLink 5.5,2013-05-25 00:10:00,
2013-05-24 20:15:00,51.3,44.7,29.77,West,270,0.0,2.0,78,0.03,,,-99.99,WeatherLink 5.5,2013-05-25 00:15:00,
2013-05-24 20:20:00,50.8,44.5,29.78,WSW,247,1.0,7.0,79,0.09,,,-99.99,WeatherLink 5.5,2013-05-25 00:20:00,
2013-05-24 20:25:00,50.4,44.5,29.78,WSW,247,0.0,4.0,80,0.10,,,-99.99,WeatherLink 5.5,2013-05-25 00:25:00,
2013-05-24 20:30:00,50.4,44.5,29.78,WSW,247,0.0,4.0,80,0.10,,,-99.99,WeatherLink 5.5,2013-05-25 00:30:00,
2013-05-24 20:35:00,50.1,44.5,29.79,North,-999,0.0,0.0,81,0.12,,,-99.99,WeatherLink 5.5,2013-05-25 00:35:00,
2013-05-24 20:40:00,50.1,44.5,29.79,West,270,0.0,1.0,81,0.12,,,-99.99,WeatherLink 5.5,2013-05-25 00:40:00,
2013-05-24 20:45:00,50.1,44.5,29.79,West,270,0.0,1.0,81,0.12,,,-99.99,WeatherLink 5.5,2013-05-25 00:45:00,
2013-05-24 20:50:00,49.8,44.5,29.79,West,270,0.0,2.0,82,0.13,,,-99.99,WeatherLink 5.5,2013-05-25 00:50:00,
2013-05-24 20:55:00,49.6,44.3,29.79,NNW,337,1.0,6.0,82,0.12,,,-99.99,WeatherLink 5.5,2013-05-25 00:55:00,
2013-05-24 21:00:00,49.6,44.3,29.79,NNW,337,1.0,6.0,82,0.12,,,-99.99,WeatherLink 5.5,2013-05-25 01:00:00,
2013-05-24 21:05:00,49.5,44.2,29.79,WSW,247,0.0,4.0,82,0.12,,,-99.99,WeatherLink 5.5,2013-05-25 01:05:00,
2013-05-24 21:10:00,49.5,44.2,29.79,WSW,247,1.0,7.0,82,0.11,,,-99.99,WeatherLink 5.5,2013-05-25 01:10:00,
2013-05-24 21:15:00,49.5,44.2,29.79,WSW,247,1.0,7.0,82,0.11,,,-99.99,WeatherLink 5.5,2013-05-25 01:15:00,
2013-05-24 21:20:00,49.1,43.8,29.79,WNW,292,1.0,6.0,82,0.05,,,-99.99,WeatherLink 5.5,2013-05-25 01:20:00,
2013-05-24 21:25:00,49.1,44.2,29.79,WSW,247,1.0,6.0,83,0.04,,,-99.99,WeatherLink 5.5,2013-05-25 01:25:00,
2013-05-24 21:30:00,49.1,44.2,29.79,WSW,247,1.0,6.0,83,0.04,,,-99.99,WeatherLink 5.5,2013-05-25 01:30:00,
2013-05-24 21:35:00,48.8,43.5,29.80,West,270,2.0,7.0,82,0.02,,,-99.99,WeatherLink 5.5,2013-05-25 01:35:00,
2013-05-24 21:40:00,48.6,43.4,29.80,WNW,292,1.0,6.0,82,0.02,,,-99.99,WeatherLink 5.5,2013-05-25 01:40:00,
2013-05-24 21:45:00,48.6,43.4,29.80,WNW,292,1.0,6.0,82,0.02,,,-99.99,WeatherLink 5.5,2013-05-25 01:45:00,
2013-05-24 21:50:00,48.6,43.7,29.80,West,270,0.0,2.0,83,0.01,,,-99.99,WeatherLink 5.5,2013-05-25 01:50:00,
2013-05-24 21:55:00,48.5,43.3,29.80,West,270,1.0,6.0,82,0.01,,,-99.99,WeatherLink 5.5,2013-05-25 01:55:00,
2013-05-24 22:00:00,48.5,43.3,29.80,West,270,1.0,6.0,82,0.01,,,-99.99,WeatherLink 5.5,2013-05-25 02:00:00,
2013-05-24 22:05:00,48.3,43.4,29.80,WSW,247,1.0,6.0,83,0.01,,,-99.99,WeatherLink 5.5,2013-05-25 02:05:00,
2013-05-24 22:10:00,48.3,43.4,29.80,WSW,247,0.0,6.0,83,0.01,,,-99.99,WeatherLink 5.5,2013-05-25 02:10:00,
2013-05-24 22:15:00,48.3,43.4,29.80,WSW,247,0.0,6.0,83,0.01,,,-99.99,WeatherLink 5.5,2013-05-25 02:15:00,
2013-05-24 22:20:00,48.2,43.3,29.79,West,270,1.0,6.0,83,0.01,,,-99.99,WeatherLink 5.5,2013-05-25 02:20:00,
2013-05-24 22:25:00,48.2,43.3,29.79,West,270,0.0,4.0,83,0.02,,,-99.99,WeatherLink 5.5,2013-05-25 02:25:00,
2013-05-24 22:30:00,48.2,43.3,29.79,West,270,0.0,4.0,83,0.02,,,-99.99,WeatherLink 5.5,2013-05-25 02:30:00,
2013-05-24 22:35:00,48.2,43.3,29.80,SW,225,0.0,2.0,83,0.02,,,-99.99,WeatherLink 5.5,2013-05-25 02:35:00,
2013-05-24 22:40:00,48.0,43.1,29.80,West,270,1.0,6.0,83,0.02,,,-99.99,WeatherLink 5.5,2013-05-25 02:40:00,
2013-05-24 22:45:00,48.0,43.1,29.80,West,270,1.0,6.0,83,0.02,,,-99.99,WeatherLink 5.5,2013-05-25 02:45:00,
2013-05-24 22:50:00,48.0,43.1,29.80,SW,225,0.0,4.0,83,0.01,,,-99.99,WeatherLink 5.5,2013-05-25 02:50:00,
2013-05-24 22:55:00,47.9,43.0,29.80,West,270,1.0,6.0,83,0.03,,,-99.99,WeatherLink 5.5,2013-05-25 02:55:00,
2013-05-24 23:00:00,47.9,43.0,29.80,West,270,1.0,6.0,83,0.03,,,-99.99,WeatherLink 5.5,2013-05-25 03:00:00,
2013-05-24 23:05:00,47.7,43.1,29.80,West,270,0.0,4.0,84,0.03,,,-99.99,WeatherLink 5.5,2013-05-25 03:05:00,
2013-05-24 23:10:00,47.7,42.8,29.80,West,270,0.0,4.0,83,0.03,,,-99.99,WeatherLink 5.5,2013-05-25 03:10:00,
2013-05-24 23:15:00,47.7,42.8,29.80,West,270,0.0,4.0,83,0.03,,,-99.99,WeatherLink 5.5,2013-05-25 03:15:00,
2013-05-24 23:20:00,47.6,43.0,29.80,WSW,247,1.0,6.0,84,0.03,,,-99.99,WeatherLink 5.5,2013-05-25 03:20:00,
2013-05-24 23:25:00,47.6,43.0,29.80,WSW,247,0.0,1.0,84,0.03,,,-99.99,WeatherLink 5.5,2013-05-25 03:25:00,
2013-05-24 23:30:00,47.6,43.0,29.80,WSW,247,0.0,1.0,84,0.03,,,-99.99,WeatherLink 5.5,2013-05-25 03:30:00,
2013-05-24 23:35:00,47.6,43.0,29.80,WSW,247,0.0,4.0,84,0.03,,,-99.99,WeatherLink 5.5,2013-05-25 03:35:00,
2013-05-24 23:40:00,47.6,43.0,29.80,SW,225,1.0,6.0,84,0.03,,,-99.99,WeatherLink 5.5,2013-05-25 03:40:00,
2013-05-24 23:45:00,47.6,43.0,29.80,SW,225,1.0,6.0,84,0.03,,,-99.99,WeatherLink 5.5,2013-05-25 03:45:00,
2013-05-24 23:50:00,47.6,43.0,29.80,WSW,247,0.0,2.0,84,0.03,,,-99.99,WeatherLink 5.5,2013-05-25 03:50:00,
2013-05-24 23:55:00,47.6,43.0,29.80,SW,225,1.0,2.0,84,0.01,,,-99.99,WeatherLink 5.5,2013-05-25 03:55:00,